Time;durP1;ratioP1;P1;durP2;ratioP2;P2;SDS_P1;SDS_P2;PMS_P1;PMS_P2;Temp;Humidity;BMP_temperature;BMP_pressure;BME280_temperature;BME280_humidity;BME280_pressure;Samples;Min_cycle;Max_cycle;Signal;HPM_P1;HPM_P2
2023/10/22 00:05:16;;;;;;;26.47;20.57;;;9.80;99.90;;;;;;10315087;28;20224;-78
2023/10/22 00:10:37;;;;;;;24.10;19.17;;;9.80;99.90;;;;;;10314755;28;20478;-77
2023/10/22 00:15:58;;;;;;;24.63;20.07;;;9.80;99.90;;;;;;10314502;28;20264;-77
2023/10/22 00:21:19;;;;;;;30.93;23.33;;;9.80;99.90;;;;;;10314091;28;20294;-76
2023/10/22 00:26:41;;;;;;;26.40;19.93;;;9.80;99.90;;;;;;10280922;28;20195;-77
2023/10/22 00:32:02;;;;;;;22.50;18.50;;;9.70;99.90;;;;;;10273555;29;20192;-78
2023/10/22 00:37:23;;;;;;;19.97;17.00;;;9.70;99.90;;;;;;10278188;28;20230;-78
2023/10/22 00:42:44;;;;;;;20.40;16.07;;;9.70;99.90;;;;;;10313500;28;20423;-78
2023/10/22 00:48:08;;;;;;;26.23;20.73;;;9.70;99.90;;;;;;10314522;28;20379;-76
2023/10/22 00:53:31;;;;;;;26.50;20.63;;;9.70;99.90;;;;;;10313824;28;20190;-76
2023/10/22 00:58:53;;;;;;;26.80;21.43;;;9.70;99.90;;;;;;10315355;28;20194;-76
2023/10/22 01:04:14;;;;;;;23.53;18.37;;;9.70;99.90;;;;;;10320880;28;20245;-78
2023/10/22 01:09:35;;;;;;;20.53;18.33;;;9.60;99.90;;;;;;10321628;28;20195;-78
2023/10/22 01:14:56;;;;;;;23.00;18.33;;;9.70;99.90;;;;;;10318539;28;20518;-77
2023/10/22 01:20:18;;;;;;;25.30;20.17;;;9.60;99.90;;;;;;10287466;28;20203;-78
2023/10/22 01:25:39;;;;;;;23.93;18.70;;;9.60;99.90;;;;;;10311051;28;20226;-78
2023/10/22 01:31:00;;;;;;;26.67;21.50;;;9.60;99.90;;;;;;10319924;28;20301;-77
2023/10/22 01:36:22;;;;;;;29.07;22.77;;;9.60;99.90;;;;;;10320414;28;20242;-76
2023/10/22 01:41:43;;;;;;;25.83;20.63;;;9.60;99.90;;;;;;10320262;28;20220;-78
2023/10/22 01:47:05;;;;;;;22.70;18.57;;;9.50;99.90;;;;;;10291673;28;20197;-77
2023/10/22 01:52:26;;;;;;;21.83;18.13;;;9.50;99.90;;;;;;10283331;28;20505;-78
2023/10/22 01:57:47;;;;;;;21.63;18.03;;;9.50;99.90;;;;;;10320197;28;20195;-77
2023/10/22 02:03:09;;;;;;;20.53;17.77;;;9.40;99.90;;;;;;10318778;28;20223;-78
2023/10/22 02:08:30;;;;;;;19.10;16.47;;;9.40;99.90;;;;;;10317965;28;20198;-77
2023/10/22 02:13:52;;;;;;;19.40;16.33;;;9.40;99.90;;;;;;10292417;28;20196;-76
2023/10/22 02:19:13;;;;;;;20.63;16.50;;;9.40;99.90;;;;;;10297804;28;20205;-78
2023/10/22 02:24:34;;;;;;;20.23;16.90;;;9.40;99.90;;;;;;10303250;28;20223;-77
2023/10/22 02:29:56;;;;;;;22.03;16.90;;;9.40;99.90;;;;;;10318548;28;20193;-78
2023/10/22 02:35:17;;;;;;;18.27;15.40;;;9.30;99.90;;;;;;10317430;28;20204;-78
2023/10/22 02:40:38;;;;;;;17.60;14.87;;;9.40;99.90;;;;;;10316881;28;20231;-77
2023/10/22 02:46:00;;;;;;;20.20;16.70;;;9.30;99.90;;;;;;10317039;28;20220;-77
2023/10/22 02:51:22;;;;;;;16.60;13.70;;;9.30;99.90;;;;;;10302696;28;20199;-77
2023/10/22 02:56:43;;;;;;;17.60;15.03;;;9.30;99.90;;;;;;10330646;28;20257;-77
2023/10/22 03:02:05;;;;;;;17.80;13.80;;;9.30;99.90;;;;;;10317212;28;20222;-78
2023/10/22 03:07:27;;;;;;;17.10;14.03;;;9.30;99.90;;;;;;10316427;28;20278;-77
2023/10/22 03:12:48;;;;;;;16.70;14.00;;;9.30;99.90;;;;;;10315830;28;20212;-77
2023/10/22 03:18:10;;;;;;;17.93;15.17;;;9.30;99.90;;;;;;10314405;28;20212;-78
2023/10/22 03:23:31;;;;;;;18.43;14.87;;;9.30;99.90;;;;;;10315629;28;20222;-77
2023/10/22 03:28:52;;;;;;;16.87;14.73;;;9.30;99.90;;;;;;10316173;28;20494;-77
2023/10/22 03:34:13;;;;;;;17.47;14.47;;;9.30;99.90;;;;;;10301232;28;20207;-77
2023/10/22 03:39:37;;;;;;;18.70;15.90;;;9.20;99.90;;;;;;10314932;28;20224;-77
2023/10/22 03:44:59;;;;;;;16.43;14.03;;;9.20;99.90;;;;;;10314407;28;20226;-78
2023/10/22 03:50:21;;;;;;;19.57;15.60;;;9.20;99.90;;;;;;10315587;28;20192;-78
2023/10/22 03:55:42;;;;;;;21.50;16.43;;;9.20;99.90;;;;;;10314447;28;20199;-77
2023/10/22 04:01:03;;;;;;;17.67;15.77;;;9.20;99.90;;;;;;10315084;28;20364;-75
2023/10/22 04:06:25;;;;;;;16.33;14.50;;;9.20;99.90;;;;;;10278287;28;20203;-78
2023/10/22 04:11:46;;;;;;;16.27;13.90;;;9.20;99.90;;;;;;10298172;28;20202;-78
2023/10/22 04:17:08;;;;;;;17.87;15.33;;;9.20;99.90;;;;;;10311397;28;20274;-78
2023/10/22 04:22:29;;;;;;;15.10;12.63;;;9.20;99.90;;;;;;10308890;28;20219;-77
2023/10/22 04:27:50;;;;;;;15.40;13.40;;;9.20;99.90;;;;;;10299682;28;20274;-77
2023/10/22 04:33:12;;;;;;;18.57;15.37;;;9.10;99.90;;;;;;10299396;28;20380;-77
2023/10/22 04:38:33;;;;;;;15.03;13.30;;;9.20;99.90;;;;;;10313443;28;20267;-77
2023/10/22 04:43:55;;;;;;;16.77;14.03;;;9.20;99.90;;;;;;10314000;28;20463;-77
2023/10/22 04:49:16;;;;;;;15.47;13.03;;;9.10;99.90;;;;;;10314058;28;20196;-77
2023/10/22 04:54:37;;;;;;;16.47;14.33;;;9.10;99.90;;;;;;10314151;28;20357;-77
2023/10/22 04:59:59;;;;;;;16.47;13.13;;;9.10;99.90;;;;;;10312683;28;20488;-77
2023/10/22 05:05:21;;;;;;;15.37;12.93;;;9.10;99.90;;;;;;10314078;28;20296;-77
2023/10/22 05:10:42;;;;;;;14.23;12.70;;;9.00;99.90;;;;;;10312810;28;20200;-78
2023/10/22 05:16:03;;;;;;;18.33;16.10;;;9.00;99.90;;;;;;10309437;28;20521;-77
2023/10/22 05:21:25;;;;;;;18.53;14.50;;;9.00;99.90;;;;;;10312562;28;20200;-77
2023/10/22 05:26:46;;;;;;;14.83;13.07;;;9.00;99.90;;;;;;10312524;28;20221;-77
2023/10/22 05:32:08;;;;;;;18.13;15.43;;;9.00;99.90;;;;;;10272453;28;20208;-78
2023/10/22 05:37:29;;;;;;;16.70;14.60;;;8.90;99.90;;;;;;10289865;28;20237;-77
2023/10/22 05:42:50;;;;;;;20.97;15.87;;;8.90;99.90;;;;;;10311926;28;20265;-77
2023/10/22 05:48:11;;;;;;;14.87;13.10;;;8.90;99.90;;;;;;10305824;28;20226;-77
2023/10/22 05:53:33;;;;;;;15.10;11.83;;;8.90;99.90;;;;;;10320108;28;20273;-77
2023/10/22 05:58:54;;;;;;;18.57;13.93;;;9.00;99.90;;;;;;10318799;28;20215;-78
2023/10/22 06:04:15;;;;;;;20.30;16.13;;;9.00;99.90;;;;;;10291809;28;20537;-78
2023/10/22 06:09:36;;;;;;;27.97;19.87;;;9.00;99.90;;;;;;10319462;28;20274;-78
2023/10/22 06:15:03;;;;;;;43.80;29.97;;;9.00;99.90;;;;;;10317742;28;20207;-77
2023/10/22 06:20:24;;;;;;;42.93;28.63;;;9.00;99.90;;;;;;10310476;28;20204;-77
2023/10/22 06:25:45;;;;;;;35.50;23.70;;;9.10;99.90;;;;;;10318759;28;20220;-77
2023/10/22 06:31:08;;;;;;;27.43;18.67;;;9.10;99.90;;;;;;10317780;28;20280;-77
2023/10/22 06:36:29;;;;;;;25.23;16.47;;;9.10;99.90;;;;;;10318563;28;20368;-77
2023/10/22 06:41:51;;;;;;;42.50;22.20;;;9.10;99.90;;;;;;10318404;28;20568;-77
2023/10/22 06:47:13;;;;;;;44.13;26.67;;;9.10;99.90;;;;;;10317194;28;20275;-78
2023/10/22 06:52:35;;;;;;;38.57;24.47;;;9.20;99.90;;;;;;10316928;28;20196;-77
2023/10/22 06:57:57;;;;;;;36.87;23.43;;;9.20;99.90;;;;;;10317931;28;20197;-78
2023/10/22 07:03:18;;;;;;;32.23;21.17;;;9.10;99.90;;;;;;10317342;28;20216;-78
2023/10/22 07:08:40;;;;;;;32.63;20.47;;;9.20;99.90;;;;;;10317338;28;20199;-77
2023/10/22 07:14:01;;;;;;;35.83;22.63;;;9.30;99.90;;;;;;10277341;28;20423;-78
2023/10/22 07:19:22;;;;;;;42.70;27.93;;;9.40;99.90;;;;;;10325925;28;20239;-77
2023/10/22 07:24:45;;;;;;;39.97;23.50;;;9.40;99.90;;;;;;10316708;28;20242;-77
2023/10/22 07:30:07;;;;;;;28.60;18.70;;;9.50;99.90;;;;;;10315337;28;20197;-78
2023/10/22 07:35:29;;;;;;;24.93;16.07;;;9.50;99.90;;;;;;10315788;28;20203;-77
2023/10/22 07:40:54;;;;;;;21.57;14.80;;;9.70;99.90;;;;;;10316099;28;20226;-77
2023/10/22 07:46:16;;;;;;;25.67;16.40;;;9.70;99.90;;;;;;10314846;28;20229;-78
2023/10/22 07:51:37;;;;;;;33.00;22.17;;;9.70;99.90;;;;;;10314625;28;20427;-77
2023/10/22 07:56:59;;;;;;;30.03;19.97;;;9.70;99.90;;;;;;10315530;28;20219;-77
2023/10/22 08:02:20;;;;;;;26.47;17.47;;;9.80;99.90;;;;;;10315343;28;20235;-78
2023/10/22 08:07:41;;;;;;;21.17;15.33;;;9.80;99.90;;;;;;10260470;28;20204;-76
2023/10/22 08:13:03;;;;;;;24.23;15.50;;;9.90;99.90;;;;;;10317157;28;20201;-78
2023/10/22 08:18:24;;;;;;;24.50;16.17;;;9.90;99.90;;;;;;10304995;28;20592;-77
2023/10/22 08:23:47;;;;;;;48.83;29.73;;;10.00;99.90;;;;;;10274828;29;20220;-77
2023/10/22 08:29:08;;;;;;;44.83;31.47;;;10.00;99.90;;;;;;10274890;29;20217;-78
2023/10/22 08:34:29;;;;;;;80.30;50.27;;;10.10;99.90;;;;;;10299007;28;20199;-78
2023/10/22 08:39:50;;;;;;;79.73;48.73;;;10.10;99.90;;;;;;10314245;28;20238;-78
2023/10/22 08:45:11;;;;;;;75.60;47.70;;;10.20;99.90;;;;;;10313450;28;20224;-78
2023/10/22 08:50:33;;;;;;;76.10;49.00;;;10.20;99.90;;;;;;10286750;28;20192;-77
2023/10/22 08:55:56;;;;;;;83.00;49.80;;;10.30;99.90;;;;;;10274387;29;20218;-78
2023/10/22 09:01:18;;;;;;;118.27;67.60;;;10.40;99.90;;;;;;10277288;28;20198;-77
2023/10/22 09:06:40;;;;;;;100.57;57.43;;;10.40;99.90;;;;;;10313018;28;20892;-78
2023/10/22 09:12:02;;;;;;;77.33;45.60;;;10.40;99.90;;;;;;10286858;28;20188;-77
2023/10/22 09:17:25;;;;;;;68.93;39.73;;;10.50;99.90;;;;;;10295129;28;20496;-78
2023/10/22 09:22:46;;;;;;;55.30;33.37;;;10.60;99.90;;;;;;10280295;29;20475;-77
2023/10/22 09:28:16;;;;;;;60.03;36.77;;;10.70;99.90;;;;;;10280075;29;20201;-77
2023/10/22 09:33:42;;;;;;;76.77;41.37;;;10.80;99.90;;;;;;10305793;28;20201;-78
2023/10/22 09:39:04;;;;;;;68.23;38.50;;;10.90;99.90;;;;;;10319948;28;20423;-78
2023/10/22 09:44:27;;;;;;;51.83;32.17;;;11.00;99.90;;;;;;10319498;28;20246;-78
2023/10/22 09:49:56;;;;;;;55.53;33.67;;;11.10;99.90;;;;;;10269611;28;20439;-78
2023/10/22 09:55:18;;;;;;;45.20;30.43;;;11.10;99.90;;;;;;10279544;29;20225;-78
2023/10/22 10:00:40;;;;;;;43.97;28.53;;;;;;;;;;10271367;28;20480;-78
2023/10/22 10:06:09;;;;;;;44.67;26.27;;;12.80;99.90;;;;;;10318568;28;20227;-78
2023/10/22 10:11:31;;;;;;;43.80;26.50;;;11.50;99.90;;;;;;10300548;28;20204;-78
2023/10/22 10:17:01;;;;;;;43.33;27.17;;;11.40;99.90;;;;;;10317918;28;20207;-77
2023/10/22 10:22:44;;;;;;;38.03;24.07;;;11.40;99.90;;;;;;10266594;29;20221;-79
2023/10/22 10:28:10;;;;;;;45.60;27.00;;;11.40;99.90;;;;;;10297752;28;20202;-78
2023/10/22 10:34:02;;;;;;;46.33;28.83;;;11.60;99.90;;;;;;10278491;28;20198;-78
2023/10/22 10:39:43;;;;;;;53.27;34.27;;;11.80;99.90;;;;;;10280351;28;20240;-78
2023/10/22 10:45:07;;;;;;;45.00;29.50;;;12.00;99.90;;;;;;10317313;28;20219;-77
2023/10/22 10:50:28;;;;;;;46.27;30.10;;;;;;;;;;10318375;28;20474;-76
2023/10/22 10:55:50;;;;;;;79.77;47.17;;;11.70;99.90;;;;;;10316616;28;20272;-77
2023/10/22 11:01:13;;;;;;;80.78;50.53;;;13.40;99.90;;;;;;10304492;28;20501;-77
2023/10/22 11:06:35;;;;;;;95.27;56.47;;;13.70;99.90;;;;;;10316277;28;20231;-78
2023/10/22 11:12:05;;;;;;;85.53;51.93;;;13.60;99.90;;;;;;10316264;28;20484;-78
2023/10/22 11:17:27;;;;;;;76.43;50.63;;;13.40;99.90;;;;;;10300375;28;20208;-78
2023/10/22 11:22:49;;;;;;;66.17;41.60;;;13.20;99.90;;;;;;10316727;28;20288;-77
2023/10/22 11:28:10;;;;;;;63.70;41.37;;;13.10;99.90;;;;;;10277475;28;20197;-77
2023/10/22 11:33:34;;;;;;;59.53;37.80;;;13.10;99.90;;;;;;10276425;29;20198;-78
2023/10/22 11:38:55;;;;;;;59.57;37.07;;;13.10;99.90;;;;;;10282372;28;20551;-78
2023/10/22 11:44:30;;;;;;;46.28;31.45;;;13.00;99.90;;;;;;10314727;28;20225;-77
2023/10/22 11:49:54;;;;;;;43.83;27.67;;;13.00;99.90;;;;;;10308762;28;20222;-77
2023/10/22 11:55:15;;;;;;;40.83;25.27;;;13.00;99.90;;;;;;10305012;28;20212;-77
2023/10/22 12:00:48;;;;;;;33.93;22.53;;;13.00;99.90;;;;;;10314162;28;20196;-78
2023/10/22 12:06:09;;;;;;;28.93;19.37;;;12.90;99.90;;;;;;10312785;28;20267;-77
2023/10/22 12:11:31;;;;;;;24.33;18.17;;;12.90;99.90;;;;;;10311209;28;20196;-78
2023/10/22 12:16:52;;;;;;;20.23;16.37;;;12.90;99.90;;;;;;10314089;28;20195;-77
2023/10/22 12:22:13;;;;;;;24.63;17.30;;;12.90;99.90;;;;;;10287072;28;20213;-77
2023/10/22 12:27:34;;;;;;;28.30;19.90;;;12.80;99.90;;;;;;10310974;28;20196;-77
2023/10/22 12:32:56;;;;;;;24.47;17.23;;;12.90;99.90;;;;;;10314487;28;20495;-77
2023/10/22 12:38:17;;;;;;;22.27;15.43;;;12.90;99.90;;;;;;10314228;28;20228;-78
2023/10/22 12:43:38;;;;;;;22.07;15.53;;;12.80;99.90;;;;;;10314040;28;20527;-77
2023/10/22 12:48:59;;;;;;;18.50;14.03;;;12.80;99.90;;;;;;10314196;28;20197;-77
2023/10/22 12:54:22;;;;;;;19.07;14.30;;;12.90;99.90;;;;;;10315652;28;20418;-77
2023/10/22 12:59:44;;;;;;;21.67;16.33;;;12.90;99.90;;;;;;10322290;28;20275;-77
2023/10/22 13:05:07;;;;;;;19.43;14.80;;;12.90;99.90;;;;;;10322792;28;20538;-77
2023/10/22 13:10:29;;;;;;;16.83;13.43;;;12.90;99.90;;;;;;10320531;28;20201;-77
2023/10/22 13:15:50;;;;;;;20.20;14.73;;;13.00;99.90;;;;;;10320150;28;20205;-78
2023/10/22 13:21:11;;;;;;;14.83;12.73;;;13.10;99.90;;;;;;10290885;28;20281;-78
2023/10/22 13:26:33;;;;;;;13.43;11.60;;;13.10;99.90;;;;;;10319826;28;20299;-77
2023/10/22 13:31:54;;;;;;;14.52;12.38;;;13.20;99.90;;;;;;10320979;28;20210;-78
2023/10/22 13:37:17;;;;;;;16.67;12.90;;;13.30;99.90;;;;;;10321034;28;20231;-77
2023/10/22 13:42:38;;;;;;;15.75;12.07;;;13.40;99.90;;;;;;10321528;28;20195;-78
2023/10/22 13:47:59;;;;;;;12.63;10.53;;;13.40;99.90;;;;;;10321112;28;20540;-77
2023/10/22 13:53:20;;;;;;;14.73;10.73;;;13.40;99.90;;;;;;10320417;28;20244;-77
2023/10/22 13:58:41;;;;;;;17.58;13.05;;;13.40;99.90;;;;;;10321834;28;20555;-79
2023/10/22 14:04:03;;;;;;;13.63;10.73;;;13.40;99.90;;;;;;10307737;28;20230;-77
2023/10/22 14:09:24;;;;;;;15.85;11.07;;;13.30;99.90;;;;;;10319829;28;20540;-76
2023/10/22 14:14:45;;;;;;;11.60;10.40;;;13.30;99.90;;;;;;10318166;28;20218;-77
2023/10/22 14:20:07;;;;;;;20.17;13.90;;;13.30;99.90;;;;;;10286405;28;20209;-77
2023/10/22 14:25:29;;;;;;;19.87;15.00;;;13.30;99.90;;;;;;10311320;28;20222;-77
2023/10/22 14:30:50;;;;;;;21.25;16.05;;;13.30;99.90;;;;;;10318717;28;20202;-77
2023/10/22 14:36:14;;;;;;;22.43;16.30;;;13.30;99.90;;;;;;10319883;28;20201;-77
2023/10/22 14:41:36;;;;;;;18.67;15.30;;;13.20;99.90;;;;;;10319726;28;20420;-77
2023/10/22 14:46:57;;;;;;;18.50;13.40;;;13.20;99.90;;;;;;10318133;28;20301;-77
2023/10/22 14:52:18;;;;;;;13.10;11.27;;;13.10;99.90;;;;;;10318795;28;20192;-78
2023/10/22 14:57:40;;;;;;;14.57;11.43;;;13.00;99.90;;;;;;10318654;28;20192;-77
2023/10/22 15:03:01;;;;;;;16.88;11.55;;;13.00;99.90;;;;;;10317665;28;20273;-77
2023/10/22 15:08:22;;;;;;;17.87;11.83;;;12.90;99.90;;;;;;10316324;28;20197;-77
2023/10/22 15:13:44;;;;;;;16.23;11.80;;;12.90;99.90;;;;;;10278164;29;20201;-77
2023/10/22 15:19:05;;;;;;;16.58;12.20;;;12.80;99.90;;;;;;10296758;28;20216;-77
2023/10/22 15:24:27;;;;;;;14.90;11.53;;;12.70;99.90;;;;;;10276981;28;20406;-76
2023/10/22 15:29:48;;;;;;;11.77;8.33;;;12.60;99.90;;;;;;10277698;29;20218;-77
2023/10/22 15:35:09;;;;;;;13.70;9.10;;;12.50;99.90;;;;;;10312605;28;20197;-77
2023/10/22 15:40:31;;;;;;;12.30;8.67;;;12.50;99.90;;;;;;10316674;28;20536;-77
2023/10/22 15:45:52;;;;;;;14.23;9.33;;;12.40;99.90;;;;;;10314710;28;20232;-77
2023/10/22 15:51:17;;;;;;;17.10;11.73;;;12.40;99.90;;;;;;10315002;28;20191;-77
2023/10/22 15:56:39;;;;;;;16.10;11.43;;;12.30;99.90;;;;;;10315678;28;20195;-76
2023/10/22 16:02:00;;;;;;;14.77;10.97;;;12.30;99.90;;;;;;10313938;28;20198;-76
2023/10/22 16:07:23;;;;;;;18.53;11.83;;;12.20;99.90;;;;;;10315815;28;20223;-77
2023/10/22 16:12:44;;;;;;;42.63;26.20;;;12.20;99.90;;;;;;10315295;28;20219;-77
2023/10/22 16:18:06;;;;;;;32.53;20.17;;;12.10;99.90;;;;;;10299426;28;20346;-77
2023/10/22 16:23:27;;;;;;;23.97;16.00;;;12.10;99.90;;;;;;10273823;29;20437;-77
2023/10/22 16:28:49;;;;;;;20.13;13.20;;;12.10;99.90;;;;;;10284677;28;20193;-77
2023/10/22 16:34:11;;;;;;;16.10;12.33;;;12.00;99.90;;;;;;10314782;28;20197;-77
2023/10/22 16:39:32;;;;;;;14.90;11.50;;;12.10;99.90;;;;;;10313438;28;20233;-77
2023/10/22 16:44:53;;;;;;;18.77;13.37;;;12.10;99.90;;;;;;10314108;28;20223;-77
2023/10/22 16:50:14;;;;;;;37.43;19.97;;;12.00;99.90;;;;;;10314448;28;20192;-77
2023/10/22 16:55:36;;;;;;;34.73;20.77;;;12.00;99.90;;;;;;10313215;28;20395;-77
2023/10/22 17:01:07;;;;;;;25.70;16.70;;;12.00;99.90;;;;;;10313359;28;20511;-77
2023/10/22 17:06:28;;;;;;;30.17;17.83;;;11.90;99.90;;;;;;10313216;28;20437;-77
2023/10/22 17:11:49;;;;;;;32.77;20.47;;;12.00;99.90;;;;;;10313909;28;20191;-77
2023/10/22 17:17:10;;;;;;;28.83;19.67;;;12.00;99.90;;;;;;10294848;28;20209;-77
2023/10/22 17:22:32;;;;;;;34.77;21.43;;;11.90;99.90;;;;;;10289072;28;20216;-77
2023/10/22 17:27:53;;;;;;;28.47;18.87;;;12.00;99.90;;;;;;10283882;28;20409;-77
2023/10/22 17:33:14;;;;;;;23.47;16.13;;;12.00;99.90;;;;;;10312336;28;20405;-77
2023/10/22 17:38:35;;;;;;;20.90;14.43;;;11.90;99.90;;;;;;10312651;28;20487;-77
2023/10/22 17:43:56;;;;;;;21.53;12.80;;;11.90;99.90;;;;;;10319990;28;20239;-77
2023/10/22 17:49:18;;;;;;;14.20;11.73;;;11.90;99.90;;;;;;10320752;28;20192;-77
2023/10/22 17:54:40;;;;;;;16.23;11.73;;;11.90;99.90;;;;;;10319595;28;20280;-77
2023/10/22 18:00:02;;;;;;;15.23;11.47;;;11.80;99.90;;;;;;10319909;28;20366;-76
2023/10/22 18:05:31;;;;;;;19.90;13.60;;;11.90;99.90;;;;;;10320037;28;20445;-77
2023/10/22 18:10:57;;;;;;;21.33;13.47;;;11.80;99.90;;;;;;10305638;28;20191;-77
2023/10/22 18:16:19;;;;;;;22.00;15.83;;;11.80;99.90;;;;;;10294835;28;20205;-77
2023/10/22 18:21:40;;;;;;;16.37;11.80;;;11.70;99.90;;;;;;10315830;28;20201;-77
2023/10/22 18:27:02;;;;;;;12.87;9.73;;;11.70;99.90;;;;;;10318034;28;20235;-77
2023/10/22 18:32:23;;;;;;;17.03;11.67;;;11.70;99.90;;;;;;10279485;28;20292;-77
2023/10/22 18:37:44;;;;;;;19.17;11.50;;;11.70;99.90;;;;;;10326217;28;20231;-76
2023/10/22 18:43:05;;;;;;;15.97;11.57;;;11.70;99.90;;;;;;10317264;28;20216;-76
2023/10/22 18:48:27;;;;;;;13.90;10.43;;;11.70;99.90;;;;;;10318444;28;20197;-77
2023/10/22 18:53:48;;;;;;;13.87;10.13;;;11.60;99.90;;;;;;10318245;28;20270;-77
2023/10/22 18:59:09;;;;;;;11.00;8.10;;;11.60;99.90;;;;;;10303465;28;20200;-76
2023/10/22 19:04:33;;;;;;;12.70;7.30;;;11.60;99.90;;;;;;10317642;28;20240;-77
2023/10/22 19:09:54;;;;;;;9.97;6.73;;;11.60;99.90;;;;;;10316716;28;20199;-77
2023/10/22 19:15:16;;;;;;;8.53;6.13;;;11.60;99.90;;;;;;10316737;28;20207;-78
2023/10/22 19:20:37;;;;;;;6.60;5.67;;;11.60;99.90;;;;;;10314104;28;20212;-77
2023/10/22 19:25:59;;;;;;;6.80;5.40;;;11.50;99.90;;;;;;10315799;28;20228;-77
2023/10/22 19:31:21;;;;;;;7.03;5.40;;;11.60;99.90;;;;;;10315809;28;20223;-77
2023/10/22 19:36:42;;;;;;;8.27;5.97;;;11.50;99.90;;;;;;10315598;28;20461;-77
2023/10/22 19:42:04;;;;;;;10.33;7.00;;;11.50;99.90;;;;;;10315108;28;20602;-77
2023/10/22 19:47:25;;;;;;;12.77;8.00;;;11.50;99.90;;;;;;10316024;28;20219;-77
2023/10/22 19:52:46;;;;;;;15.97;9.90;;;11.50;99.90;;;;;;10315073;28;20242;-77
2023/10/22 19:58:08;;;;;;;14.93;9.90;;;11.50;99.90;;;;;;10315249;28;20191;-76
2023/10/22 20:03:29;;;;;;;16.53;11.83;;;11.50;99.90;;;;;;10314050;28;20197;-76
2023/10/22 20:08:51;;;;;;;15.20;10.47;;;11.40;99.90;;;;;;10300296;28;20207;-77
2023/10/22 20:14:13;;;;;;;16.57;9.53;;;11.40;99.90;;;;;;10314818;28;20199;-77
2023/10/22 20:19:34;;;;;;;11.33;8.97;;;11.30;99.90;;;;;;10329393;28;20208;-77
2023/10/22 20:24:55;;;;;;;12.30;8.73;;;11.40;99.90;;;;;;10299686;28;20421;-76
2023/10/22 20:30:17;;;;;;;11.07;7.80;;;11.30;99.90;;;;;;10315308;28;20469;-76
2023/10/22 20:35:38;;;;;;;9.63;7.30;;;11.30;99.90;;;;;;10315375;28;20550;-77
2023/10/22 20:41:01;;;;;;;8.50;6.27;;;11.30;99.90;;;;;;10312992;28;20293;-75
2023/10/22 20:46:22;;;;;;;9.33;6.27;;;11.20;99.90;;;;;;10314654;28;20219;-76
2023/10/22 20:51:43;;;;;;;7.00;5.57;;;11.20;99.90;;;;;;10314402;28;20251;-76
2023/10/22 20:57:04;;;;;;;8.23;5.83;;;11.20;99.90;;;;;;10314216;28;20487;-76
2023/10/22 21:02:25;;;;;;;11.10;6.40;;;11.20;99.90;;;;;;10313406;28;20205;-76
2023/10/22 21:07:47;;;;;;;7.63;5.50;;;11.20;99.90;;;;;;10314206;28;20294;-76
2023/10/22 21:13:08;;;;;;;6.57;5.23;;;11.30;99.90;;;;;;10313914;28;20283;-78
2023/10/22 21:18:29;;;;;;;10.07;6.10;;;11.30;99.90;;;;;;10320620;28;20196;-75
2023/10/22 21:23:50;;;;;;;7.33;6.43;;;11.30;99.90;;;;;;10320255;28;20284;-77
2023/10/22 21:29:11;;;;;;;8.90;6.07;;;11.20;99.90;;;;;;10321548;28;20219;-77
2023/10/22 21:34:32;;;;;;;8.50;7.00;;;11.10;99.90;;;;;;10293322;28;20442;-75
2023/10/22 21:39:54;;;;;;;9.93;6.47;;;11.10;99.90;;;;;;10319496;28;20469;-77
2023/10/22 21:45:15;;;;;;;8.50;6.60;;;11.10;99.90;;;;;;10320340;28;20226;-77
2023/10/22 21:50:36;;;;;;;6.97;6.20;;;11.10;99.90;;;;;;10320491;28;20368;-77
2023/10/22 21:55:59;;;;;;;6.97;5.93;;;11.00;99.90;;;;;;10305816;28;20420;-78
2023/10/22 22:01:20;;;;;;;8.50;6.57;;;11.00;99.90;;;;;;10280201;28;20200;-77
2023/10/22 22:06:41;;;;;;;6.97;5.57;;;11.00;99.90;;;;;;10279631;28;20390;-76
2023/10/22 22:12:03;;;;;;;9.40;6.77;;;11.00;99.90;;;;;;10306052;28;20238;-76
2023/10/22 22:17:24;;;;;;;7.87;6.30;;;10.90;99.90;;;;;;10318814;28;20214;-77
2023/10/22 22:22:46;;;;;;;8.67;5.93;;;10.90;99.90;;;;;;10319231;28;20218;-76
2023/10/22 22:28:07;;;;;;;9.13;5.10;;;10.90;99.90;;;;;;10317303;28;20222;-76
2023/10/22 22:33:28;;;;;;;10.20;6.17;;;11.00;99.90;;;;;;10319020;28;20247;-77
2023/10/22 22:38:49;;;;;;;10.83;6.80;;;11.00;99.90;;;;;;10318724;28;20231;-76
2023/10/22 22:44:10;;;;;;;9.27;5.80;;;11.00;99.90;;;;;;10317707;28;20278;-77
2023/10/22 22:49:32;;;;;;;6.23;4.87;;;11.00;99.90;;;;;;10318248;28;20278;-76
2023/10/22 22:54:53;;;;;;;5.43;4.40;;;11.00;99.90;;;;;;10318044;28;20191;-76
2023/10/22 23:00:14;;;;;;;6.83;4.47;;;10.90;99.90;;;;;;10317860;28;20499;-76
2023/10/22 23:05:35;;;;;;;8.47;5.27;;;10.90;99.90;;;;;;10316519;28;20584;-77
2023/10/22 23:10:57;;;;;;;6.17;4.20;;;10.90;99.90;;;;;;10317373;28;20301;-77
2023/10/22 23:16:18;;;;;;;5.53;4.43;;;10.80;99.90;;;;;;10312998;28;20207;-78
2023/10/22 23:21:39;;;;;;;5.83;3.97;;;10.80;99.90;;;;;;10277665;28;20199;-77
2023/10/22 23:27:01;;;;;;;6.10;4.20;;;10.80;99.90;;;;;;10302476;28;20294;-76
2023/10/22 23:32:22;;;;;;;4.73;3.77;;;10.90;99.90;;;;;;10315664;28;20204;-76
2023/10/22 23:37:43;;;;;;;4.57;3.53;;;10.90;99.90;;;;;;10314657;28;20235;-76
2023/10/22 23:43:04;;;;;;;5.70;3.87;;;10.80;99.90;;;;;;10316386;28;20191;-77
2023/10/22 23:48:25;;;;;;;5.23;3.87;;;10.90;99.90;;;;;;10315994;28;20592;-77
2023/10/22 23:53:46;;;;;;;8.53;4.27;;;10.80;99.90;;;;;;10314567;28;20191;-77
2023/10/22 23:59:08;;;;;;;5.93;4.77;;;10.80;99.90;;;;;;10315947;28;20202;-77
